Time;durP1;ratioP1;P1;durP2;ratioP2;P2;SDS_P1;SDS_P2;PMS_P1;PMS_P2;Temp;Humidity;BMP_temperature;BMP_pressure;BME280_temperature;BME280_humidity;BME280_pressure;Samples;Min_cycle;Max_cycle;Signal;HPM_P1;HPM_P2
2021/09/23 00:00:21;;;;;;;17.58;14.38;;;;;;;10.79;100.00;101132.47;5089416;28;20032;-64
2021/09/23 00:02:49;;;;;;;14.05;11.80;;;;;;;10.80;100.00;101134.19;5089364;28;20032;-64
2021/09/23 00:05:18;;;;;;;16.00;12.40;;;;;;;10.73;100.00;101113.28;5089406;28;20016;-64
2021/09/23 00:07:45;;;;;;;14.60;12.57;;;;;;;10.79;100.00;101129.78;5089460;28;20051;-64
2021/09/23 00:10:14;;;;;;;17.50;12.73;;;;;;;10.71;100.00;101124.13;5089220;28;20115;-64
2021/09/23 00:12:40;;;;;;;14.65;11.68;;;;;;;10.76;100.00;101142.56;5105281;28;20481;-65
2021/09/23 00:15:07;;;;;;;15.70;13.43;;;;;;;10.76;100.00;101135.38;5090146;28;20036;-64
2021/09/23 00:17:32;;;;;;;14.93;12.55;;;;;;;10.77;100.00;101126.34;5093027;28;20115;-64
2021/09/23 00:19:58;;;;;;;16.15;12.20;;;;;;;10.79;100.00;101127.09;5093026;28;20110;-63
2021/09/23 00:22:23;;;;;;;16.05;12.07;;;;;;;10.78;100.00;101117.34;5091775;28;20084;-65
2021/09/23 00:24:49;;;;;;;16.02;13.52;;;;;;;10.78;100.00;101129.91;5093070;28;20028;-64
2021/09/23 00:27:14;;;;;;;17.60;14.27;;;;;;;10.80;100.00;101131.50;5093173;28;20031;-65
2021/09/23 00:29:39;;;;;;;17.77;13.77;;;;;;;10.81;100.00;101125.16;5093125;28;20028;-65
2021/09/23 00:32:05;;;;;;;17.15;13.48;;;;;;;10.72;100.00;101100.84;5091384;28;20024;-65
2021/09/23 00:34:31;;;;;;;18.23;14.27;;;;;;;10.81;100.00;101114.41;5092863;28;20036;-65
2021/09/23 00:36:57;;;;;;;16.58;13.75;;;;;;;10.81;100.00;101122.47;5092879;28;20093;-64
2021/09/23 00:39:23;;;;;;;16.50;13.55;;;;;;;10.80;100.00;101117.25;5092734;28;20032;-64
2021/09/23 00:41:50;;;;;;;16.80;13.02;;;;;;;10.83;100.00;101130.41;5091338;28;20020;-66
2021/09/23 00:44:18;;;;;;;19.00;13.68;;;;;;;10.83;100.00;101122.34;5092993;28;20109;-65
2021/09/23 00:46:46;;;;;;;16.35;12.50;;;;;;;10.85;100.00;101125.78;5092615;28;20113;-65
2021/09/23 00:49:11;;;;;;;15.02;13.18;;;;;;;10.85;100.00;101118.59;5091589;28;20107;-64
2021/09/23 00:51:37;;;;;;;17.42;13.07;;;;;;;10.87;100.00;101119.31;5092737;28;20118;-64
2021/09/23 00:54:03;;;;;;;17.60;12.48;;;;;;;10.83;100.00;101122.34;5091865;28;20032;-66
2021/09/23 00:56:29;;;;;;;16.60;12.02;;;;;;;10.84;100.00;101119.53;5092026;28;20027;-64
2021/09/23 00:58:54;;;;;;;15.30;12.10;;;;;;;10.80;100.00;101111.88;5090355;28;20131;-65
2021/09/23 01:01:20;;;;;;;16.27;12.15;;;;;;;10.86;100.00;101128.34;5091549;28;20019;-64
2021/09/23 01:03:45;;;;;;;14.50;10.65;;;;;;;10.88;100.00;101131.78;5091576;28;20039;-65
2021/09/23 01:06:11;;;;;;;15.70;12.35;;;;;;;10.74;100.00;101113.16;5091739;28;20073;-65
2021/09/23 01:08:39;;;;;;;14.40;12.40;;;;;;;10.78;100.00;101127.22;5091683;28;20035;-65
2021/09/23 01:11:05;;;;;;;15.60;11.60;;;;;;;10.81;100.00;101138.56;5091231;28;20515;-64
2021/09/23 01:13:31;;;;;;;17.27;11.77;;;;;;;10.77;100.00;101128.22;5091695;28;20097;-64
2021/09/23 01:15:56;;;;;;;15.38;11.85;;;;;;;10.81;100.00;101129.69;5090094;28;20089;-64
2021/09/23 01:18:22;;;;;;;13.48;11.05;;;;;;;10.81;100.00;101135.88;5090351;28;20069;-65
2021/09/23 01:20:48;;;;;;;14.15;11.80;;;;;;;10.76;100.00;101130.03;5091272;28;20030;-64
2021/09/23 01:23:14;;;;;;;15.95;12.02;;;;;;;10.81;100.00;101127.81;5091426;28;20469;-65
2021/09/23 01:25:40;;;;;;;15.65;12.27;;;;;;;10.86;100.00;101135.53;5091346;28;20035;-64
2021/09/23 01:28:05;;;;;;;14.30;11.25;;;;;;;10.89;100.00;101132.63;5090366;28;20032;-64
2021/09/23 01:30:31;;;;;;;15.43;12.07;;;;;;;10.88;100.00;101137.16;5090826;28;20036;-64
2021/09/23 01:32:57;;;;;;;13.88;11.77;;;;;;;10.87;100.00;101126.53;5090828;28;20030;-64
2021/09/23 01:35:22;;;;;;;16.00;12.50;;;;;;;10.87;100.00;101124.69;5091021;28;20067;-64
2021/09/23 01:37:48;;;;;;;16.55;12.15;;;;;;;10.86;100.00;101122.97;5090803;28;20493;-65
2021/09/23 01:40:14;;;;;;;16.00;12.60;;;;;;;10.85;100.00;101123.97;5091028;28;20499;-65
2021/09/23 01:42:43;;;;;;;14.45;11.40;;;;;;;10.82;100.00;101118.81;5090827;28;20161;-64
2021/09/23 01:45:10;;;;;;;14.00;11.27;;;;;;;10.84;100.00;101122.22;5089346;28;20084;-65
2021/09/23 01:47:36;;;;;;;13.48;11.05;;;;;;;10.84;100.00;101114.19;5090781;28;20020;-65
2021/09/23 01:50:02;;;;;;;14.32;11.45;;;;;;;10.83;100.00;101112.47;5090744;28;20208;-64
2021/09/23 01:52:27;;;;;;;18.80;11.82;;;;;;;10.84;100.00;101102.59;5090587;28;20023;-65
2021/09/23 01:54:52;;;;;;;13.02;11.25;;;;;;;10.77;100.00;101087.97;5106272;28;20027;-64
2021/09/23 01:57:18;;;;;;;14.85;11.18;;;;;;;10.81;100.00;101095.63;5090649;28;20031;-66
2021/09/23 01:59:44;;;;;;;14.60;11.90;;;;;;;10.82;100.00;101108.09;5090600;28;20031;-65
2021/09/23 02:02:10;;;;;;;14.80;10.45;;;;;;;10.81;100.00;101111.72;5090617;28;20028;-64
2021/09/23 02:04:35;;;;;;;15.65;11.75;;;;;;;10.80;100.00;101111.88;5090575;28;20093;-64
2021/09/23 02:07:02;;;;;;;13.57;11.00;;;;;;;10.75;100.00;101101.50;5090200;28;20503;-64
2021/09/23 02:09:27;;;;;;;17.23;10.82;;;;;;;10.80;100.00;101110.03;5090303;28;20034;-64
2021/09/23 02:11:53;;;;;;;13.20;10.93;;;;;;;10.77;100.00;101099.53;5090032;28;20032;-65
2021/09/23 02:14:18;;;;;;;13.95;11.23;;;;;;;10.70;100.00;101082.19;5090077;28;20019;-65
2021/09/23 02:16:44;;;;;;;11.77;10.38;;;;;;;10.80;100.00;101106.50;5090438;28;20028;-65
2021/09/23 02:19:09;;;;;;;12.27;10.43;;;;;;;10.85;100.00;101112.38;5090041;28;20024;-64
2021/09/23 02:21:35;;;;;;;13.43;10.38;;;;;;;10.78;100.00;101106.63;5090219;28;20031;-65
2021/09/23 02:24:00;;;;;;;13.43;10.60;;;;;;;10.82;100.00;101118.81;5090014;28;20028;-65
2021/09/23 02:26:26;;;;;;;12.55;10.10;;;;;;;10.77;100.00;101099.53;5090208;28;20024;-65
2021/09/23 02:28:51;;;;;;;12.70;8.82;;;;;;;10.76;100.00;101105.88;5089641;28;20039;-65
2021/09/23 02:31:17;;;;;;;12.80;10.05;;;;;;;10.81;100.00;101114.41;5090035;28;20040;-66
2021/09/23 02:33:43;;;;;;;11.60;9.65;;;;;;;10.76;100.00;101108.56;5090259;28;20036;-65
2021/09/23 02:36:09;;;;;;;13.52;9.15;;;;;;;10.81;100.00;101109.03;5089896;28;20031;-64
2021/09/23 02:38:34;;;;;;;12.80;9.82;;;;;;;10.84;100.00;101108.81;5089099;28;20024;-64
2021/09/23 02:41:00;;;;;;;10.63;9.18;;;;;;;10.79;100.00;101124.44;5089630;28;20120;-64
2021/09/23 02:43:25;;;;;;;11.48;9.32;;;;;;;10.77;100.00;101115.63;5089871;28;20102;-64
2021/09/23 02:45:51;;;;;;;12.07;9.90;;;;;;;10.74;100.00;101115.84;5089620;28;20034;-64
2021/09/23 02:48:17;;;;;;;12.32;9.90;;;;;;;10.74;100.00;101109.66;5089807;28;20617;-64
2021/09/23 02:50:42;;;;;;;14.20;10.25;;;;;;;10.82;100.00;101121.50;5089844;28;20115;-65
2021/09/23 02:53:08;;;;;;;11.45;9.30;;;;;;;10.75;100.00;101106.84;5089455;28;20020;-65
2021/09/23 02:55:33;;;;;;;13.40;10.57;;;;;;;10.73;100.00;101105.25;5089858;28;20043;-64
2021/09/23 02:57:59;;;;;;;15.18;10.90;;;;;;;10.76;100.00;101103.19;5089316;28;20085;-65
2021/09/23 03:00:24;;;;;;;14.43;10.73;;;;;;;10.72;100.00;101099.03;5089383;28;20020;-65
2021/09/23 03:02:49;;;;;;;15.50;10.77;;;;;;;10.72;100.00;101107.09;5088921;28;20032;-65
2021/09/23 03:05:15;;;;;;;14.50;10.98;;;;;;;10.71;100.00;101099.97;5089249;28;20019;-65
2021/09/23 03:07:41;;;;;;;13.63;9.65;;;;;;;10.69;100.00;101096.59;5089301;28;20016;-65
2021/09/23 03:10:06;;;;;;;14.60;10.85;;;;;;;10.68;100.00;101094.00;5088643;28;20288;-65
2021/09/23 03:12:32;;;;;;;12.23;10.32;;;;;;;10.64;100.00;101088.00;5087745;28;20024;-65
2021/09/23 03:14:57;;;;;;;12.98;10.73;;;;;;;10.58;100.00;101085.78;5089132;28;20062;-64
2021/09/23 03:17:23;;;;;;;13.27;10.93;;;;;;;10.65;100.00;101100.47;5088136;28;20024;-65
2021/09/23 03:19:48;;;;;;;12.07;10.27;;;;;;;10.65;100.00;101094.25;5088941;28;20039;-64
2021/09/23 03:22:17;;;;;;;14.00;10.65;;;;;;;10.53;100.00;101077.25;5089173;28;20039;-64
2021/09/23 03:24:43;;;;;;;14.18;10.60;;;;;;;10.59;100.00;101092.88;5089278;28;20024;-65
2021/09/23 03:27:09;;;;;;;13.27;9.90;;;;;;;10.56;100.00;101086.88;5088317;28;20115;-64
2021/09/23 03:29:35;;;;;;;15.82;10.70;;;;;;;10.53;100.00;101087.13;5088899;28;20036;-65
2021/09/23 03:32:00;;;;;;;14.55;10.70;;;;;;;10.47;100.00;101080.41;5088740;28;20115;-64
2021/09/23 03:34:26;;;;;;;12.43;10.43;;;;;;;10.47;100.00;101091.13;5088691;28;20023;-64
2021/09/23 03:36:52;;;;;;;13.45;11.13;;;;;;;10.39;100.00;101081.94;5088761;28;20024;-65
2021/09/23 03:39:18;;;;;;;13.95;10.73;;;;;;;10.35;100.00;101088.50;5115826;28;20044;-63
2021/09/23 03:41:43;;;;;;;14.57;10.10;;;;;;;10.30;100.00;101083.50;5088939;28;20021;-65
2021/09/23 03:44:09;;;;;;;14.57;10.63;;;;;;;10.28;100.00;101090.78;5088565;28;20028;-65
2021/09/23 03:46:34;;;;;;;14.13;10.43;;;;;;;10.24;100.00;101083.94;5088918;28;20498;-65
2021/09/23 03:49:00;;;;;;;13.73;10.27;;;;;;;10.10;100.00;101070.72;5088805;28;20723;-65
2021/09/23 03:51:25;;;;;;;13.45;9.93;;;;;;;10.14;100.00;101098.13;5091435;28;20135;-64
2021/09/23 03:53:51;;;;;;;13.20;10.35;;;;;;;10.07;100.00;101092.38;5091959;28;20027;-68
2021/09/23 03:56:16;;;;;;;12.80;10.32;;;;;;;10.01;100.00;101102.66;5093305;28;20057;-67
2021/09/23 03:58:43;;;;;;;14.20;10.27;;;;;;;9.90;100.00;101097.22;5093235;28;20023;-67
2021/09/23 04:01:09;;;;;;;13.02;10.25;;;;;;;9.83;100.00;101099.47;5091426;28;20034;-68
2021/09/23 04:03:35;;;;;;;14.32;11.05;;;;;;;9.73;100.00;101092.22;5088971;28;20035;-69
2021/09/23 04:06:01;;;;;;;14.88;11.68;;;;;;;9.72;100.00;101102.09;5091832;28;20102;-68
2021/09/23 04:08:27;;;;;;;16.42;11.18;;;;;;;9.67;100.00;101101.53;5090120;28;20031;-67
2021/09/23 04:10:52;;;;;;;13.90;10.95;;;;;;;9.62;100.00;101101.03;5091402;28;20051;-69
2021/09/23 04:13:18;;;;;;;18.00;12.63;;;;;;;9.60;100.00;101102.09;5090614;28;20539;-68
2021/09/23 04:15:45;;;;;;;14.88;10.88;;;;;;;9.57;100.00;101103.16;5092553;28;20081;-68
2021/09/23 04:18:15;;;;;;;15.18;11.25;;;;;;;9.53;100.00;101108.84;5092217;28;20754;-67
2021/09/23 04:20:41;;;;;;;16.27;11.70;;;;;;;9.48;100.00;101111.84;5090125;28;20020;-68
2021/09/23 04:23:06;;;;;;;16.50;11.68;;;;;;;9.39;99.62;101104.50;5092276;28;20047;-69
2021/09/23 04:25:32;;;;;;;16.70;11.93;;;;;;;9.40;99.38;101108.00;5092127;28;20506;-67
2021/09/23 04:27:57;;;;;;;18.88;12.52;;;;;;;9.35;98.66;101102.97;5092422;28;20048;-69
2021/09/23 04:30:23;;;;;;;17.45;12.70;;;;;;;9.23;98.88;101090.47;5092543;28;20124;-67
2021/09/23 04:32:48;;;;;;;17.30;12.23;;;;;;;9.20;99.20;101096.88;5090683;28;20064;-68
2021/09/23 04:35:14;;;;;;;16.70;12.60;;;;;;;9.22;99.70;101107.47;5092138;28;20539;-68
2021/09/23 04:37:39;;;;;;;18.90;12.90;;;;;;;9.17;100.00;101102.47;5092171;28;20032;-68
2021/09/23 04:40:05;;;;;;;18.00;13.20;;;;;;;9.01;99.92;101075.06;5091453;28;20050;-69
2021/09/23 04:42:31;;;;;;;17.08;12.38;;;;;;;9.12;100.00;101101.03;5091979;28;20028;-68
2021/09/23 04:44:56;;;;;;;23.92;14.50;;;;;;;9.03;100.00;101097.19;5091199;28;20246;-69
2021/09/23 04:47:21;;;;;;;22.92;14.55;;;;;;;9.02;99.97;101103.50;5089781;28;20028;-68
2021/09/23 04:49:47;;;;;;;24.60;15.68;;;;;;;9.00;100.00;101104.59;5091441;28;20028;-68
2021/09/23 04:52:12;;;;;;;18.15;13.25;;;;;;;8.99;100.00;101100.19;5091239;28;20085;-68
2021/09/23 04:54:38;;;;;;;19.08;13.98;;;;;;;8.98;100.00;101103.81;5091016;28;20072;-68
2021/09/23 04:57:03;;;;;;;25.15;14.75;;;;;;;8.96;100.00;101103.06;5091074;28;20061;-68
2021/09/23 04:59:29;;;;;;;20.38;13.85;;;;;;;8.89;100.00;101096.44;5106683;28;20044;-69
2021/09/23 05:01:54;;;;;;;21.65;14.82;;;;;;;8.91;100.00;101116.75;5089529;28;20090;-68
2021/09/23 05:04:20;;;;;;;23.27;14.45;;;;;;;8.89;100.00;101110.66;5090943;28;20028;-68
2021/09/23 05:06:45;;;;;;;18.95;13.95;;;;;;;8.86;100.00;101118.91;5091097;28;20119;-68
2021/09/23 05:09:11;;;;;;;19.83;14.75;;;;;;;8.80;100.00;101103.25;5090916;28;20028;-68
2021/09/23 05:11:37;;;;;;;22.95;16.08;;;;;;;8.79;100.00;101096.22;5087829;28;20040;-68
2021/09/23 05:14:03;;;;;;;20.55;13.93;;;;;;;8.78;100.00;101104.34;5088636;28;20031;-68
2021/09/23 05:16:29;;;;;;;23.48;15.43;;;;;;;8.76;100.00;101093.75;5089431;28;20020;-68
2021/09/23 05:18:54;;;;;;;22.48;15.90;;;;;;;8.78;100.00;101107.84;5090305;28;20216;-68
2021/09/23 05:21:19;;;;;;;23.50;15.52;;;;;;;8.79;100.00;101112.25;5091303;28;20107;-68
2021/09/23 05:23:45;;;;;;;23.08;14.90;;;;;;;8.75;100.00;101113.44;5091837;28;20028;-67
2021/09/23 05:26:10;;;;;;;22.45;15.63;;;;;;;8.74;100.00;101114.38;5091546;28;20020;-68
2021/09/23 05:28:37;;;;;;;24.88;15.60;;;;;;;8.73;100.00;101117.16;5091737;28;20081;-68
2021/09/23 05:31:03;;;;;;;23.90;16.48;;;;;;;8.76;100.00;101131.19;5091470;28;20027;-69
2021/09/23 05:33:29;;;;;;;21.92;15.63;;;;;;;8.82;100.00;101129.91;5091510;28;20480;-69
2021/09/23 05:35:54;;;;;;;22.67;15.88;;;;;;;8.76;100.00;101116.94;5091235;28;20024;-69
2021/09/23 05:38:22;;;;;;;24.60;16.05;;;;;;;8.84;100.00;101128.00;5091321;28;20725;-68
2021/09/23 05:40:48;;;;;;;19.60;14.77;;;;;;;8.84;100.00;101134.19;5090101;28;20028;-68
2021/09/23 05:43:13;;;;;;;26.33;16.58;;;;;;;8.95;100.00;101146.84;5089978;28;20069;-68
2021/09/23 05:45:39;;;;;;;21.75;16.48;;;;;;;8.95;100.00;101141.50;5090509;28;20063;-68
2021/09/23 05:48:04;;;;;;;23.73;16.65;;;;;;;8.95;100.00;101136.16;5087581;28;20503;-67
2021/09/23 05:50:30;;;;;;;21.50;16.27;;;;;;;9.02;100.00;101149.00;5089346;28;20027;-68
2021/09/23 05:52:55;;;;;;;27.48;17.02;;;;;;;8.97;100.00;101136.91;5089757;28;20054;-68
2021/09/23 05:55:22;;;;;;;24.25;17.05;;;;;;;9.17;100.00;101160.47;5091425;28;20453;-67
2021/09/23 05:57:48;;;;;;;25.77;15.73;;;;;;;9.19;100.00;101158.53;5091483;28;20058;-68
2021/09/23 06:00:16;;;;;;;23.17;16.95;;;;;;;9.22;100.00;101161.00;5091312;28;20023;-67
2021/09/23 06:02:42;;;;;;;24.95;17.35;;;;;;;9.28;100.00;101155.22;5091211;28;20012;-67
2021/09/23 06:05:09;;;;;;;23.98;17.27;;;;;;;9.37;100.00;101159.09;5091240;28;20028;-68
2021/09/23 06:07:34;;;;;;;26.55;17.73;;;;;;;9.44;100.00;101149.69;5091260;28;20039;-68
2021/09/23 06:09:59;;;;;;;25.63;17.80;;;;;;;9.59;100.00;101156.63;5090875;28;20097;-69
2021/09/23 06:12:25;;;;;;;27.73;18.58;;;;;;;9.79;100.00;101156.94;5091094;28;20032;-68
2021/09/23 06:14:50;;;;;;;25.50;17.92;;;;;;;9.90;100.00;101158.84;5089710;28;20020;-68
2021/09/23 06:17:16;;;;;;;23.27;17.30;;;;;;;10.02;100.00;101148.09;5091039;28;20520;-65
2021/09/23 06:19:42;;;;;;;24.63;16.95;;;;;;;10.20;100.00;101151.31;5091140;28;20028;-67
2021/09/23 06:22:07;;;;;;;22.13;15.93;;;;;;;10.31;100.00;101136.13;5089551;28;20476;-67
2021/09/23 06:24:33;;;;;;;27.42;17.50;;;;;;;10.50;99.99;101132.94;5090828;28;20024;-66
2021/09/23 06:26:59;;;;;;;24.90;17.58;;;;;;;10.65;99.57;101137.16;5090823;28;20043;-67
2021/09/23 06:29:24;;;;;;;23.63;18.10;;;;;;;10.88;98.34;101121.06;5091013;28;20020;-67
2021/09/23 06:31:50;;;;;;;24.83;16.88;;;;;;;11.01;98.46;101123.63;5089162;28;20058;-67
2021/09/23 06:34:15;;;;;;;20.67;16.30;;;;;;;11.22;95.11;101117.47;5090678;28;20051;-67
2021/09/23 06:36:41;;;;;;;25.88;17.33;;;;;;;11.24;95.10;101106.59;5090900;28;20465;-67
2021/09/23 06:39:07;;;;;;;21.42;16.63;;;;;;;11.32;94.63;101120.31;5090561;28;20085;-68
2021/09/23 06:41:33;;;;;;;22.00;16.65;;;;;;;11.47;93.15;101121.75;5090623;28;20024;-67
2021/09/23 06:44:04;;;;;;;20.08;15.30;;;;;;;11.47;92.18;101111.88;5090592;28;20030;-67
2021/09/23 06:46:30;;;;;;;20.73;16.25;;;;;;;11.55;92.06;101119.34;5090486;28;20032;-67
2021/09/23 06:48:55;;;;;;;21.13;16.45;;;;;;;11.52;92.86;101114.22;5090766;28;20039;-67
2021/09/23 06:51:21;;;;;;;21.50;16.35;;;;;;;11.60;92.74;101127.03;5090345;28;20024;-68
2021/09/23 06:53:47;;;;;;;20.70;16.23;;;;;;;11.68;91.94;101125.50;5090707;28;20031;-66
2021/09/23 06:56:13;;;;;;;25.20;16.13;;;;;;;11.74;93.08;101124.13;5090718;28;20102;-66
2021/09/23 06:58:39;;;;;;;20.00;15.77;;;;;;;11.79;93.77;101117.41;5090582;28;20065;-68
2021/09/23 07:01:08;;;;;;;21.02;16.55;;;;;;;12.09;90.01;101116.78;5090271;28;20039;-67
2021/09/23 07:03:34;;;;;;;22.42;16.50;;;;;;;12.29;90.51;101129.44;5090354;28;20043;-66
2021/09/23 07:05:59;;;;;;;20.50;16.15;;;;;;;12.38;91.39;101123.31;5090185;28;20036;-67
2021/09/23 07:08:25;;;;;;;20.38;16.13;;;;;;;12.54;90.72;101126.44;5090178;28;20107;-67
2021/09/23 07:10:50;;;;;;;19.88;14.88;;;;;;;12.79;87.14;101129.63;5090306;28;20048;-67
2021/09/23 07:13:16;;;;;;;20.70;16.25;;;;;;;13.00;85.12;101124.31;5090136;28;20036;-67
2021/09/23 07:15:42;;;;;;;20.08;16.00;;;;;;;13.05;84.28;101128.31;5090284;28;20027;-67
2021/09/23 07:18:08;;;;;;;22.67;15.57;;;;;;;13.13;81.45;101119.59;5088742;28;20114;-67
2021/09/23 07:20:33;;;;;;;19.85;15.57;;;;;;;13.11;81.50;101108.09;5088748;28;20088;-67
2021/09/23 07:22:59;;;;;;;20.80;16.92;;;;;;;13.05;83.73;101114.00;5089950;28;20032;-66
2021/09/23 07:25:24;;;;;;;19.65;16.40;;;;;;;13.17;83.02;101121.03;5089418;28;20039;-67
2021/09/23 07:27:54;;;;;;;25.23;15.52;;;;;;;13.31;84.24;101129.63;5090266;28;20039;-67
2021/09/23 07:30:21;;;;;;;17.95;13.45;;;;;;;13.49;82.34;101119.97;5090094;28;20024;-66
2021/09/23 07:32:47;;;;;;;24.73;15.23;;;;;;;13.62;82.50;101101.72;5089948;28;20111;-66
2021/09/23 07:35:12;;;;;;;20.13;15.05;;;;;;;14.00;83.26;101108.25;5089794;28;20122;-66
2021/09/23 07:37:39;;;;;;;20.67;15.13;;;;;;;14.33;81.12;101103.41;5090011;28;20064;-66
2021/09/23 07:40:06;;;;;;;17.35;14.40;;;;;;;14.80;78.63;101104.44;5089986;28;20107;-68
2021/09/23 07:42:32;;;;;;;15.85;13.73;;;;;;;15.43;73.06;101088.44;5089873;28;20028;-67
2021/09/23 07:44:58;;;;;;;17.85;13.35;;;;;;;16.71;66.27;101088.31;5089878;28;20376;-68
2021/09/23 07:47:24;;;;;;;16.67;13.20;;;;;;;17.96;60.23;101075.97;5089753;28;20388;-66
2021/09/23 07:49:49;;;;;;;13.70;12.20;;;;;;;19.20;55.70;101082.13;5089908;28;20046;-67
2021/09/23 07:52:15;;;;;;;14.00;12.50;;;;;;;20.31;51.82;101076.56;5088436;28;20043;-67
2021/09/23 07:54:40;;;;;;;14.88;11.52;;;;;;;21.52;49.14;101069.97;5089695;28;20050;-67
2021/09/23 07:57:06;;;;;;;14.50;12.88;;;;;;;22.60;45.52;101054.63;5089641;28;20028;-67
2021/09/23 07:59:31;;;;;;;16.30;12.18;;;;;;;23.69;43.46;101058.50;5089748;28;20028;-67
2021/09/23 08:01:56;;;;;;;12.95;11.55;;;;;;;24.66;41.21;101055.38;5089444;28;20469;-67
2021/09/23 08:04:22;;;;;;;13.43;11.77;;;;;;;25.32;39.45;101051.69;5089657;28;20035;-67
2021/09/23 08:06:48;;;;;;;15.75;10.57;;;;;;;26.08;38.50;101052.78;5105381;28;20032;-66
2021/09/23 08:09:13;;;;;;;15.27;12.13;;;;;;;26.61;37.35;101042.38;5089553;28;20503;-66
2021/09/23 08:11:40;;;;;;;12.55;11.27;;;;;;;27.22;36.42;101036.03;5089537;28;20092;-66
2021/09/23 08:14:06;;;;;;;11.82;10.75;;;;;;;27.63;35.67;101027.19;5089635;28;20091;-67
2021/09/23 08:16:32;;;;;;;13.07;11.60;;;;;;;27.97;34.84;101027.44;5089566;28;20704;-67
2021/09/23 08:18:57;;;;;;;11.70;10.10;;;;;;;28.48;33.56;101036.13;5089401;28;20032;-67
2021/09/23 08:21:23;;;;;;;10.38;9.38;;;;;;;28.83;33.17;101032.63;5089699;28;20020;-68
2021/09/23 08:23:50;;;;;;;11.77;10.68;;;;;;;29.06;32.59;101021.66;5089668;28;20129;-67
2021/09/23 08:26:16;;;;;;;11.95;9.88;;;;;;;29.36;31.96;101025.16;5088157;28;20024;-68
2021/09/23 08:28:41;;;;;;;12.70;11.00;;;;;;;29.55;31.10;101022.06;5089475;28;20070;-68
2021/09/23 08:31:08;;;;;;;11.85;10.75;;;;;;;30.05;30.64;101034.25;5089375;28;20039;-68
2021/09/23 08:33:33;;;;;;;10.63;9.52;;;;;;;30.35;29.97;101023.03;5089266;28;20369;-67
2021/09/23 08:35:59;;;;;;;10.93;9.90;;;;;;;30.60;30.05;101015.22;5089365;28;20032;-67
2021/09/23 08:38:24;;;;;;;12.15;10.60;;;;;;;30.88;29.29;101017.13;5092527;28;20028;-67
2021/09/23 08:40:51;;;;;;;10.40;9.40;;;;;;;31.30;28.13;101024.81;5093187;28;20036;-66
2021/09/23 08:43:17;;;;;;;10.98;9.98;;;;;;;31.50;27.02;101022.34;5092874;28;20443;-68
2021/09/23 08:45:44;;;;;;;9.68;8.77;;;;;;;31.58;27.02;101008.06;5091684;28;20464;-68
2021/09/23 08:48:10;;;;;;;10.82;9.82;;;;;;;31.69;27.32;101012.63;5092784;28;20101;-66
2021/09/23 08:50:37;;;;;;;9.93;8.85;;;;;;;31.92;27.21;101001.31;5092786;28;20066;-68
2021/09/23 08:53:04;;;;;;;11.48;8.10;;;;;;;31.94;26.68;101004.69;5092578;28;20020;-68
2021/09/23 08:55:31;;;;;;;10.43;8.70;;;;;;;31.96;26.43;100987.78;5108212;28;20541;-67
2021/09/23 08:58:00;;;;;;;9.32;8.45;;;;;;;32.09;26.78;101001.28;5092835;28;20242;-68
2021/09/23 09:00:26;;;;;;;11.10;8.75;;;;;;;32.27;26.63;101000.94;5092600;28;20027;-65
2021/09/23 09:03:02;;;;;;;9.63;8.73;;;;;;;32.18;26.61;101011.66;5090757;28;20032;-64
2021/09/23 09:05:28;;;;;;;9.60;8.70;;;;;;;32.11;26.85;100994.34;5092663;28;20036;-63
2021/09/23 09:08:10;;;;;;;9.00;8.20;;;;;;;32.14;26.17;101006.91;5092714;28;20036;-65
2021/09/23 09:10:36;;;;;;;10.80;8.15;;;;;;;32.07;26.48;101007.09;5092065;28;20185;-64
2021/09/23 09:13:04;;;;;;;9.63;8.73;;;;;;;31.96;27.04;100991.41;5090680;28;20493;-65
2021/09/23 09:15:41;;;;;;;8.32;7.38;;;;;;;32.35;26.41;101003.28;5092296;28;20024;-64
2021/09/23 09:18:26;;;;;;;8.05;7.25;;;;;;;32.18;26.45;101000.53;5092207;28;20059;-64
2021/09/23 09:20:58;;;;;;;8.05;7.35;;;;;;;32.02;26.13;100995.91;5092401;28;20065;-64
2021/09/23 09:23:26;;;;;;;7.88;7.15;;;;;;;31.41;27.24;100998.94;5092077;28;20028;-67
2021/09/23 09:25:53;;;;;;;8.18;7.45;;;;;;;30.80;28.29;100999.00;5092245;28;20051;-67
2021/09/23 09:28:20;;;;;;;9.75;8.18;;;;;;;29.90;29.81;100992.47;5092041;28;20050;-67
2021/09/23 09:30:56;;;;;;;9.48;7.57;;;;;;;28.85;30.79;100992.66;5091990;28;20024;-67
2021/09/23 09:33:23;;;;;;;9.50;8.50;;;;;;;27.97;32.40;100988.81;5091805;28;20032;-66
2021/09/23 09:35:48;;;;;;;8.35;7.55;;;;;;;27.16;34.00;101003.00;5092126;28;20036;-68
2021/09/23 09:38:14;;;;;;;8.07;7.28;;;;;;;26.57;35.21;100999.84;5091394;28;20031;-68
2021/09/23 09:40:42;;;;;;;8.65;7.80;;;;;;;26.01;35.70;101006.09;5091773;28;20461;-67
2021/09/23 09:43:13;;;;;;;7.25;6.65;;;;;;;25.21;36.81;101002.84;5091788;28;20032;-68
2021/09/23 09:45:39;;;;;;;10.15;7.05;;;;;;;24.93;37.19;101015.13;5091799;28;20082;-67
2021/09/23 09:48:06;;;;;;;8.50;6.85;;;;;;;24.12;38.86;101008.78;5106801;28;20024;-68
2021/09/23 09:50:33;;;;;;;8.52;6.95;;;;;;;23.52;40.81;101014.16;5091619;28;20389;-69
2021/09/23 09:53:02;;;;;;;8.27;7.38;;;;;;;23.02;41.62;100999.88;5091398;28;20043;-66
2021/09/23 09:55:34;;;;;;;8.70;7.80;;;;;;;22.58;43.19;101002.84;5091699;28;20472;-67
2021/09/23 09:58:01;;;;;;;8.95;8.00;;;;;;;22.56;43.32;100991.25;5090171;28;20026;-66
2021/09/23 10:00:28;;;;;;;8.65;7.80;;;;;;;22.15;44.60;101003.81;5090131;28;20046;-66
2021/09/23 10:02:54;;;;;;;8.55;7.22;;;;;;;21.82;45.21;101005.28;5091394;28;20488;-67
2021/09/23 10:05:21;;;;;;;12.55;7.40;;;;;;;21.68;45.63;101003.41;5091080;28;20092;-66
2021/09/23 10:07:50;;;;;;;8.32;7.45;;;;;;;21.47;46.30;101006.06;5091328;28;20063;-67
2021/09/23 10:10:18;;;;;;;8.52;7.32;;;;;;;21.39;46.44;101006.13;5091081;28;20123;-68
2021/09/23 10:12:46;;;;;;;13.23;8.50;;;;;;;21.23;46.48;100996.25;5089871;28;20178;-67
2021/09/23 10:15:14;;;;;;;8.40;7.05;;;;;;;20.98;47.39;101004.84;5091093;28;20043;-66
2021/09/23 10:17:48;;;;;;;9.50;7.75;;;;;;;20.78;48.29;100987.28;5090927;28;20410;-67
2021/09/23 10:20:17;;;;;;;7.65;6.88;;;;;;;20.74;48.26;100991.41;5091024;28;20707;-66
2021/09/23 10:22:43;;;;;;;8.82;7.43;;;;;;;20.91;48.50;100991.09;5091108;28;20457;-66
2021/09/23 10:25:12;;;;;;;9.60;7.25;;;;;;;20.73;48.82;100989.72;5091091;28;20054;-67
2021/09/23 10:30:27;;;;;;;10.50;8.15;;;;;;;20.47;48.93;100998.25;5090889;28;20553;-67
2021/09/23 10:32:54;;;;;;;8.48;7.45;;;;;;;20.07;50.42;100983.03;5088584;28;20028;-67
2021/09/23 10:35:22;;;;;;;9.27;7.47;;;;;;;19.84;51.36;100993.03;5090504;28;20391;-67
2021/09/23 10:37:50;;;;;;;15.18;7.97;;;;;;;19.59;52.34;100977.84;5090789;28;20028;-67
2021/09/23 10:40:17;;;;;;;8.77;6.50;;;;;;;19.48;52.27;100978.19;5090629;28;20047;-67
2021/09/23 10:42:44;;;;;;;8.52;5.88;;;;;;;19.35;52.33;100972.47;5106319;28;20028;-65
2021/09/23 10:45:10;;;;;;;6.93;5.78;;;;;;;19.29;52.02;100973.19;5090552;28;20472;-67
2021/09/23 10:47:36;;;;;;;7.25;6.22;;;;;;;19.21;52.83;100969.59;5090553;28;20035;-66
2021/09/23 10:50:05;;;;;;;6.90;5.72;;;;;;;19.28;53.16;100976.91;5090533;28;20032;-68
2021/09/23 10:52:34;;;;;;;7.78;6.25;;;;;;;19.29;52.99;100962.31;5090590;28;20020;-68
2021/09/23 10:55:03;;;;;;;7.57;6.30;;;;;;;19.31;52.35;100952.09;5090567;28;20361;-67
2021/09/23 10:57:30;;;;;;;7.88;6.07;;;;;;;19.27;52.74;100961.63;5090451;28;20034;-67
2021/09/23 10:59:56;;;;;;;8.18;6.85;;;;;;;19.28;53.09;100962.47;5089756;28;20032;-67
2021/09/23 11:02:31;;;;;;;8.98;6.68;;;;;;;19.27;53.93;100956.19;5090096;28;20616;-65
2021/09/23 11:04:59;;;;;;;7.57;6.70;;;;;;;19.25;53.51;100944.59;5090489;28;20026;-68
2021/09/23 11:07:28;;;;;;;8.48;7.45;;;;;;;19.41;53.23;100955.44;5090197;28;20055;-67